Condiciones actuales en los principales Aeropuertos de España-Datos Metar

 

LEAL - Alicante
Actualización: 26/09/2020 19:30
Despejado
Despejado
 Viento del NNE
Viento: NNE 11 km/h
Temperatura: 23°C
Rocío: 10°C
Humedad: 44%
Barómetro: 1013 hPa
Resumen: Despejado
Visibilidad: greater than 10 km
2020/09/26 17:30 LEAL 261730Z 02006KT CAVOK 23/10 Q1013 NOSIG
LEAB - Albacete
Actualización: 26/09/2020 19:30
Despejado
Despejado
 Viento del ONO
Viento: ONO 24 km/h
Temperatura: 18°C
Rocío: 3°C
Humedad: 37%
Barómetro: 1017 hPa
Resumen: Despejado
Visibilidad: greater than 10 km
2020/09/26 17:30 LEAB 261730Z 29013KT CAVOK 18/03 Q1017 NOSIG
LEAM - Almería
Actualización: 26/09/2020 19:30
Despejado
Despejado
 Viento del SSO
Viento: SSO 22 km/h
Temperatura: 22°C
Rocío: 16°C
Humedad: 69%
Barómetro: 1015 hPa
Resumen: Despejado
Visibilidad: greater than 10 km
2020/09/26 17:30 LEAM 261730Z 21012KT CAVOK 22/16 Q1015
 
LEAS - Asturias/Aviles
Actualización: 26/09/2020 19:30
Lluvia débil, Muy nuboso
Lluvia débil, Muy nuboso
 Viento del ONO
Viento: ONO 31 km/h, Racha: 54 km/h
Temperatura: 16°C
Rocío: 16°C
Humedad: 100%
Barómetro: 1016 hPa
Resumen: Light Rain
Nubosidad: Mostly Cloudy
Visibilidad: 7 km
Cloud details: Partly Cloudy 152 m
Mostly Cloudy 610 m
2020/09/26 17:30 LEAS 261730Z 29017G29KT 250V330 7000 -RA SCT005 BKN020 16/16 Q1016 TEMPO 3000 RA BKN010
LEBZ - Badajoz/Talavera la Real
Actualización: 26/09/2020 19:30
Despejado
Despejado
 Viento del O
Viento: O 28 km/h
Temperatura: 24°C
Rocío: 9°C
Humedad: 39%
Barómetro: 1018 hPa
Resumen: Despejado
Visibilidad: greater than 10 km
2020/09/26 17:30 LEBZ 261730Z 27015KT CAVOK 24/09 Q1018
LEBL - Barcelona
Actualización: 26/09/2020 19:30
Few Clouds
Few Clouds
 Viento del O
Viento: O 28 km/h
Temperatura: 21°C
Rocío: 8°C
Humedad: 43%
Barómetro: 1008 hPa
Nubosidad: Few Clouds
Visibilidad: 10 km
Cloud details: Few Clouds 610 m
2020/09/26 17:30 LEBL 261730Z 26015KT 9999 FEW020 21/08 Q1008 NOSIG
 
LEBB - Bilbao
Actualización: 26/09/2020 19:30
LLuvia, Muy nuboso
LLuvia, Muy nuboso
 Viento del O
Viento: O 22 km/h
Temperatura: 17°C
Rocío: 15°C
Humedad: 88%
Barómetro: 1012 hPa
Resumen: LLuvia
Nubosidad: Mostly Cloudy
Visibilidad: 7 km
Cloud details: Few Clouds 549 m
Partly Cloudy 762 m
Mostly Cloudy 975 m
2020/09/26 17:30 LEBB 261730Z 28012KT 220V320 7000 RA FEW018 SCT025 BKN032 17/15 Q1012 TEMPO 3000 SHRA SCT030TCU
LEBG - Burgos/Villafría
Actualización: 26/09/2020 19:30
Few Clouds
Few Clouds
 Viento del O
Viento: O 26 km/h
Temperatura: 17°C
Rocío: 8°C
Humedad: 56%
Barómetro: 1015 hPa
Nubosidad: Few Clouds
Visibilidad: 10 km
Cloud details: Few Clouds 1981 m
2020/09/26 17:30 LEBG 261730Z 28014KT 240V320 9999 FEW065 17/08 Q1015
LEBA - Córdoba
Actualización: 26/09/2020 19:30
Despejado
Despejado
 Viento del ONO
Viento: ONO 7 km/h
Temperatura: 27°C
Rocío: 5°C
Humedad: 24%
Barómetro: 1016 hPa
Resumen: Despejado
Visibilidad: greater than 10 km
2020/09/26 17:30 LEBA 261730Z 30004KT 210V340 CAVOK 27/05 Q1016
 
LEGE - Gerona
Actualización: 26/09/2020 19:30
Mostly Cloudy
Mostly Cloudy
 Viento del SSE
Viento: SSE 15 km/h
Temperatura: 17°C
Rocío: 8°C
Humedad: 56%
Barómetro: 1007 hPa
Nubosidad: Mostly Cloudy
Visibilidad: 10 km
Cloud details: Few Clouds 1829 m
Mostly Cloudy 2286 m
2020/09/26 17:30 LEGE 261730Z 15008KT 9999 FEW060 BKN075 17/08 Q1007
LEGR - Granada
Actualización: 26/09/2020 19:30
Despejado
Despejado
 Viento del NNO
Viento: NNO 17 km/h
Temperatura: 23°C
Rocío: 3°C
Humedad: 27%
Barómetro: 1017 hPa
Resumen: Despejado
Visibilidad: greater than 10 km
2020/09/26 17:30 LEGR 261730Z 34009KT 300V020 CAVOK 23/03 Q1017
GCHI - Hierro
Actualización: 26/09/2020 19:30
Few Clouds
Few Clouds
 Viento del N
Viento: N 28 km/h, Racha: 46 km/h
Temperatura: 24°C
Rocío: 20°C
Humedad: 78%
Barómetro: 1020 hPa
Nubosidad: Few Clouds
Visibilidad: 10 km
Cloud details: Few Clouds 762 m
2020/09/26 17:30 GCHI 261730Z 36015G25KT 9999 FEW025 24/20 Q1020
 
LEIB - Ibiza
Actualización: 26/09/2020 19:30
Despejado
Despejado
 Viento del SO
Viento: SO 13 km/h
Temperatura: 21°C
Rocío: 8°C
Humedad: 43%
Barómetro: 1012 hPa
Resumen: Despejado
Visibilidad: greater than 10 km
2020/09/26 17:30 LEIB 261730Z 23007KT CAVOK 21/08 Q1012 NOSIG
LEJR - Jerez de la Frontera
Actualización: 26/09/2020 19:30
Despejado
Despejado
 Viento del O
Viento: O 17 km/h
Temperatura: 26°C
Rocío: 7°C
Humedad: 30%
Barómetro: 1017 hPa
Resumen: Despejado
Visibilidad: greater than 10 km
2020/09/26 17:30 LEJR 261730Z 26009KT 230V290 CAVOK 26/07 Q1017
LECO - A Coruña
Actualización: 26/09/2020 19:30
Cubierto
Cubierto
 Viento del NNO
Viento: NNO 15 km/h
Temperatura: 17°C
Rocío: 16°C
Humedad: 94%
Barómetro: 1020 hPa
Nubosidad: Cubierto
Visibilidad: 9 km
Cloud details: Few Clouds 122 m
Partly Cloudy 183 m
Cubierto 610 m
2020/09/26 17:30 LECO 261730Z 33008KT 290V020 9000 FEW004 SCT006 OVC020 17/16 Q1020 RERA REDZ NOSIG
 
GCLA - La Palma
Actualización: 26/09/2020 19:30
Partly Cloudy
Partly Cloudy
 Viento del N
Viento: N 20 km/h
Temperatura: 25°C
Rocío: 20°C
Humedad: 74%
Barómetro: 1021 hPa
Nubosidad: Partly Cloudy
Visibilidad: 10 km
Cloud details: Partly Cloudy 823 m
2020/09/26 17:30 GCLA 261730Z 01011KT 340V050 9999 SCT027 25/20 Q1021
GCRR - Lanzarote
Actualización: 26/09/2020 19:30
Few Clouds
Few Clouds
 Viento del N
Viento: N 39 km/h
Temperatura: 26°C
Rocío: 19°C
Humedad: 65%
Barómetro: 1019 hPa
Nubosidad: Few Clouds
Visibilidad: 10 km
Cloud details: Few Clouds 610 m
2020/09/26 17:30 GCRR 261730Z 36021KT 340V040 9999 FEW020 26/19 Q1019
GCLP - Las Palmas
Actualización: 26/09/2020 19:30
Few Clouds
Few Clouds
 Viento del NNE
Viento: NNE 50 km/h
Temperatura: 25°C
Rocío: 19°C
Humedad: 69%
Barómetro: 1018 hPa
Nubosidad: Few Clouds
Visibilidad: 10 km
Cloud details: Few Clouds 610 m
2020/09/26 17:30 GCLP 261730Z 02027KT 9999 FEW020 25/19 Q1018 NOSIG
 
LELN - León
Actualización: 26/09/2020 19:30
Partly Cloudy
Partly Cloudy
 Viento del OSO
Viento: OSO 30 km/h
Temperatura: 13°C
Rocío: 10°C
Humedad: 82%
Barómetro: 1017 hPa
Nubosidad: Partly Cloudy
Visibilidad: 10 km
Cloud details: Few Clouds 914 m
Partly Cloudy 1372 m
2020/09/26 17:30 LELN 261730Z 25016KT 210V280 9999 FEW030 SCT045 13/10 Q1017
LELO - Logroño
Actualización: 26/09/2020 19:30
Lluvia débil, Muy nuboso
Lluvia débil, Muy nuboso
 Viento del O
Viento: O 19 km/h
Temperatura: 16°C
Rocío: 12°C
Humedad: 77%
Barómetro: 1013 hPa
Resumen: Light Rain
Nubosidad: Mostly Cloudy
Visibilidad: 10 km
Cloud details: Few Clouds 762 m
Mostly Cloudy 1524 m
2020/09/26 17:30 LELO 261730Z 26010KT 230V300 9999 -RA FEW025 BKN050 16/12 Q1013
LECV - Madrid/Colmenar
Actualización: 26/09/2020 19:30
Partly Cloudy
Partly Cloudy
 Viento del ONO
Viento: ONO 19 km/h, Racha: 37 km/h
Temperatura: 16°C
Rocío: 5°C
Humedad: 48%
Barómetro: 1017 hPa
Nubosidad: Partly Cloudy
Visibilidad: 10 km
Cloud details: Partly Cloudy 1524 m
2020/09/26 17:30 LECV 261730Z 30010G20KT 9999 SCT050 16/05 Q1017
 
LEMD - Madrid/Barajas
Actualización: 26/09/2020 19:30
Few Clouds
Few Clouds
 Viento del ONO
Viento: ONO 30 km/h
Temperatura: 20°C
Rocío: 6°C
Humedad: 40%
Barómetro: 1016 hPa
Nubosidad: Few Clouds
Visibilidad: 10 km
Cloud details: Few Clouds 2134 m
2020/09/26 17:30 LEMD 261730Z 30016KT 9999 FEW070 20/06 Q1016 NOSIG
LEVS - Madrid/Cuatro Vientos
Actualización: 26/09/2020 19:30
Despejado
Despejado
 Viento del ONO
Viento: ONO 15 km/h
Temperatura: 20°C
Rocío: 6°C
Humedad: 40%
Barómetro: 1017 hPa
Resumen: Despejado
Visibilidad: greater than 10 km
2020/09/26 17:30 LEVS 261730Z 29008KT 240V320 CAVOK 20/06 Q1017
LEGT - Madrid/Getafe
Actualización: 26/09/2020 19:30
Despejado
Despejado
 Viento del NO
Viento: NO 17 km/h
Temperatura: 21°C
Rocío: 6°C
Humedad: 38%
Barómetro: 1017 hPa
Resumen: Despejado
Visibilidad: greater than 10 km
2020/09/26 17:30 LEGT 261730Z 31009KT 260V350 CAVOK 21/06 Q1017
 
LETO - Madrid/Torrejón
Actualización: 26/09/2020 19:30
Few Clouds
Few Clouds
 Viento del ONO
Viento: ONO 28 km/h
Temperatura: 19°C
Rocío: 6°C
Humedad: 43%
Barómetro: 1016 hPa
Nubosidad: Few Clouds
Visibilidad: 10 km
Cloud details: Few Clouds 1981 m
2020/09/26 17:30 LETO 261730Z 29015KT 260V320 9999 FEW065 19/06 Q1016 NOSIG
LEMG - Málaga
Actualización: 26/09/2020 19:30
Despejado
Despejado
 Viento del NNE
Viento: NNE 7 km/h
Temperatura: 24°C
Rocío: 13°C
Humedad: 50%
Barómetro: 1015 hPa
Resumen: Despejado
Visibilidad: greater than 10 km
2020/09/26 17:30 LEMG 261730Z 03004KT 350V080 CAVOK 24/13 Q1015 NOSIG
GEML - Melilla
Actualización: 26/09/2020 19:30
Despejado
Despejado
 Viento del O
Viento: O 15 km/h
Temperatura: 23°C
Rocío: 12°C
Humedad: 50%
Barómetro: 1016 hPa
Resumen: Despejado
Visibilidad: greater than 10 km
2020/09/26 17:30 GEML 261730Z 27008KT 230V320 CAVOK 23/12 Q1016
 
LEMH - Mahón
Actualización: 26/09/2020 19:30
Few Clouds
Few Clouds
 Viento del O
Viento: O 17 km/h
Temperatura: 18°C
Rocío: 10°C
Humedad: 60%
Barómetro: 1011 hPa
Nubosidad: Few Clouds
Visibilidad: 10 km
Cloud details: Few Clouds 1067 m
2020/09/26 17:30 LEMH 261730Z 28009KT 240V310 9999 FEW035 18/10 Q1011
LEMO - Morón de La Frontera
Actualización: 26/09/2020 19:30
Despejado
Despejado
 Viento del O
Viento: O 11 km/h
Temperatura: 27°C
Rocío: 5°C
Humedad: 24%
Barómetro: 1017 hPa
Resumen: Despejado
Visibilidad: greater than 10 km
2020/09/26 17:30 LEMO 261730Z 27006KT 230V300 CAVOK 27/05 Q1017 NOSIG
LEMI - Murcia/Corvera
Actualización: 26/09/2020 19:30
Despejado
Despejado
 Viento del SO
Viento: SO 22 km/h
Temperatura: 22°C
Rocío: 8°C
Humedad: 41%
Barómetro: 1014 hPa
Resumen: Despejado
Visibilidad: greater than 10 km
2020/09/26 17:30 LEMI 261730Z 22012KT CAVOK 22/08 Q1014
 
LERI - Murcia/Alcantarilla
Actualización: 26/09/2020 19:30
Despejado
Despejado
 Viento del OSO
Viento: OSO 17 km/h
Temperatura: 24°C
Rocío: 5°C
Humedad: 29%
Barómetro: 1013 hPa
Resumen: Despejado
Visibilidad: greater than 10 km
2020/09/26 17:30 LERI 261730Z 25009KT 220V290 CAVOK 24/05 Q1013 NOSIG
LELC - Murcia/San Javier
Actualización: 26/09/2020 19:30
Despejado
Despejado
 Viento del SSO
Viento: SSO 22 km/h
Temperatura: 23°C
Rocío: 10°C
Humedad: 44%
Barómetro: 1013 hPa
Resumen: Despejado
Visibilidad: greater than 10 km
2020/09/26 17:30 LELC 261730Z AUTO 21012KT 160V260 CAVOK 23/10 Q1013
LEPA - Palma de Mallorca
Actualización: 26/09/2020 19:30
Few Clouds
Few Clouds
 Viento del O
Viento: O 19 km/h
Temperatura: 21°C
Rocío: 10°C
Humedad: 50%
Barómetro: 1011 hPa
Nubosidad: Few Clouds
Visibilidad: 10 km
Cloud details: Few Clouds 914 m
2020/09/26 17:30 LEPA 261730Z 28010KT 9999 FEW030 21/10 Q1011 NOSIG
 
LEPP - Pamplona
Actualización: 26/09/2020 19:30
Mostly Cloudy
Mostly Cloudy
 Viento del O
Viento: O 11 km/h
Temperatura: 15°C
Rocío: 11°C
Humedad: 77%
Barómetro: 1012 hPa
Nubosidad: Mostly Cloudy
Visibilidad: 10 km
Cloud details: Mostly Cloudy 1006 m
2020/09/26 17:30 LEPP 261730Z 26006KT 190V290 9999 BKN033 15/11 Q1012
LERS - Reus
Actualización: 26/09/2020 19:30
Few Clouds
Few Clouds
 Viento del O
Viento: O 28 km/h
Temperatura: 21°C
Rocío: 8°C
Humedad: 43%
Barómetro: 1009 hPa
Nubosidad: Few Clouds
Visibilidad: 10 km
Cloud details: Few Clouds 1524 m
2020/09/26 17:30 LERS 261730Z 26015KT 230V300 9999 FEW050 21/08 Q1009
LERT - Rota
Actualización: 26/09/2020 19:30
Despejado
Despejado
 Viento del O
Viento: O 13 km/h
Temperatura: 23°C
Rocío: 15°C
Humedad: 61%
Barómetro: 1017 hPa
Resumen: Despejado
Visibilidad: greater than 10 km
2020/09/26 17:30 LERT 261730Z 27007KT CAVOK 23/15 Q1017 NOSIG
 
LELL - Sabadell
Actualización: 26/09/2020 19:30
Despejado
Despejado
 Viento del OSO
Viento: OSO 17 km/h
Temperatura: 20°C
Rocío: 8°C
Humedad: 46%
Barómetro: 1008 hPa
Resumen: Despejado
Visibilidad: greater than 10 km
2020/09/26 17:30 LELL 261730Z 25009KT 200V290 CAVOK 20/08 Q1008
LESA - Salamanca
Actualización: 26/09/2020 19:30
Few Clouds
Few Clouds
 Viento del ONO
Viento: ONO 24 km/h
Temperatura: 16°C
Rocío: 9°C
Humedad: 63%
Barómetro: 1020 hPa
Nubosidad: Few Clouds
Visibilidad: 10 km
Cloud details: Few Clouds 914 m
2020/09/26 17:30 LESA 261730Z 30013KT 260V340 9999 FEW030 16/09 Q1020
LESO - San Sebastián
Actualización: 26/09/2020 19:30
Lluvia débil, Nearby showers, Cubierto
Lluvia débil, Nearby showers, Cubierto
 Viento del OSO
Viento: OSO 22 km/h, Racha: 41 km/h
Temperatura: 17°C
Rocío: 14°C
Humedad: 83%
Barómetro: 1010 hPa
Resumen: Lluvia débil, Nearby showers
Nubosidad: Cubierto
Visibilidad: 3 km
Cloud details: Mostly Cloudy 762 m
Cubierto 853 m
2020/09/26 17:30 LESO 261730Z 25012G22KT 200V300 3400 -RA VCSH BKN025 OVC028TCU 17/14 Q1010
 
LEXJ - Santander
Actualización: 26/09/2020 19:30
Mostly Cloudy
Mostly Cloudy
 Viento del ONO
Viento: ONO 54 km/h
Temperatura: 19°C
Rocío: 16°C
Humedad: 83%
Barómetro: 1013 hPa
Nubosidad: Mostly Cloudy
Visibilidad: 10 km
Cloud details: Partly Cloudy 671 m
Mostly Cloudy 1006 m
2020/09/26 17:30 LEXJ 261730Z 29029KT 260V320 9999 SCT022 BKN033 19/16 Q1013
LEPA - Palma de Mallorca
Actualización: 26/09/2020 19:30
Few Clouds
Few Clouds
 Viento del O
Viento: O 19 km/h
Temperatura: 21°C
Rocío: 10°C
Humedad: 50%
Barómetro: 1011 hPa
Nubosidad: Few Clouds
Visibilidad: 10 km
Cloud details: Few Clouds 914 m
2020/09/26 17:30 LEPA 261730Z 28010KT 9999 FEW030 21/10 Q1011 NOSIG
LEPP - Pamplona
Actualización: 26/09/2020 19:30
Mostly Cloudy
Mostly Cloudy
 Viento del O
Viento: O 11 km/h
Temperatura: 15°C
Rocío: 11°C
Humedad: 77%
Barómetro: 1012 hPa
Nubosidad: Mostly Cloudy
Visibilidad: 10 km
Cloud details: Mostly Cloudy 1006 m
2020/09/26 17:30 LEPP 261730Z 26006KT 190V290 9999 BKN033 15/11 Q1012
 
LEST - Santiago de Compostela
Actualización: 26/09/2020 19:30
Lluvia débil, Drizzle, Patches of, Niebla, Muy nuboso
Lluvia débil, Drizzle, Patches of, Niebla, Muy nuboso
 Viento del O
Viento: O 11 km/h
Temperatura: 15°C
Rocío: 15°C
Humedad: 100%
Barómetro: 1020 hPa
Resumen: Lluvia débil, Drizzle, Patches of, Niebla
Nubosidad: Mostly Cloudy
Visibilidad: 3 km
Cloud details: Partly Cloudy 61 m
Mostly Cloudy 91 m
2020/09/26 17:30 LEST 261730Z 26006KT 220V320 3000 -RADZ BCFG SCT002 BKN003 15/15 Q1020 NOSIG
LEZL - Sevilla
Actualización: 26/09/2020 19:30
Despejado
Despejado
 Viento del ONO
Viento: ONO 9 km/h
Temperatura: 28°C
Rocío: 5°C
Humedad: 23%
Barómetro: 1016 hPa
Resumen: Despejado
Visibilidad: greater than 10 km
2020/09/26 17:30 LEZL 261730Z 29005KT CAVOK 28/05 Q1016 NOSIG
GCXO - Tenerife
Actualización: 26/09/2020 19:30
Few Clouds
Few Clouds
 Viento del ONO
Viento: ONO 24 km/h
Temperatura: 24°C
Rocío: 16°C
Humedad: 61%
Barómetro: 1022 hPa
Nubosidad: Few Clouds
Visibilidad: 10 km
Cloud details: Few Clouds 244 m
2020/09/26 17:30 GCXO 261730Z 30013KT 9999 FEW008 24/16 Q1022 NOSIG
 
GCTS - Tenerife-Sur
Actualización: 26/09/2020 19:30
Few Clouds
Few Clouds
 Viento del ENE
Viento: ENE 41 km/h
Temperatura: 26°C
Rocío: 19°C
Humedad: 65%
Barómetro: 1019 hPa
Nubosidad: Few Clouds
Visibilidad: 10 km
Cloud details: Few Clouds 610 m
2020/09/26 17:30 GCTS 261730Z 07022KT 050V110 9999 FEW020 26/19 Q1019 NOSIG
LEVC - Valencia
Actualización: 26/09/2020 19:30
Despejado
Despejado
 Viento del O
Viento: O 26 km/h
Temperatura: 27°C
Rocío: 6°C
Humedad: 26%
Barómetro: 1011 hPa
Resumen: Despejado
Visibilidad: greater than 10 km
2020/09/26 17:30 LEVC 261730Z 27014KT 240V300 CAVOK 27/06 Q1011 NOSIG
LEVD - Valladolid
Actualización: 26/09/2020 19:30
Partly Cloudy
Partly Cloudy
 Viento del NO
Viento: NO 31 km/h
Temperatura: 17°C
Rocío: 8°C
Humedad: 56%
Barómetro: 1018 hPa
Nubosidad: Partly Cloudy
Visibilidad: 10 km
Cloud details: Partly Cloudy 1494 m
2020/09/26 17:30 LEVD 261730Z 31017KT 9999 SCT049 17/08 Q1018
 
LEVX - Vigo
Actualización: 26/09/2020 19:30
LLuvia, Mist, Muy nuboso
LLuvia, Mist, Muy nuboso
 Viento del OSO
Viento: OSO 9 km/h
Temperatura: 16°C
Rocío: 15°C
Humedad: 94%
Barómetro: 1021 hPa
Resumen: LLuvia, Mist
Nubosidad: Mostly Cloudy
Visibilidad: 1 km
Cloud details: Mostly Cloudy 61 m
Mostly Cloudy 122 m
2020/09/26 17:30 LEVX 261730Z 25005KT 210V290 1200 R19/1600N R01/1600U RA BR BKN002 BKN004 16/15 Q1021 NOSIG
LEVT - Vitoria
Actualización: 26/09/2020 19:30
Mostly Cloudy
Mostly Cloudy
 Viento del SSO
Viento: SSO 9 km/h
Temperatura: 13°C
Rocío: 13°C
Humedad: 100%
Barómetro: 1013 hPa
Nubosidad: Mostly Cloudy
Visibilidad: 10 km
Cloud details: Few Clouds 457 m
Mostly Cloudy 1158 m
2020/09/26 17:30 LEVT 261730Z 21005KT 9999 FEW015 BKN038 13/13 Q1013
LEZG - Zaragoza
Actualización: 26/09/2020 19:30
Mostly Cloudy
Mostly Cloudy
 Viento del ONO
Viento: ONO 15 km/h
Temperatura: 19°C
Rocío: 9°C
Humedad: 52%
Barómetro: 1012 hPa
Nubosidad: Mostly Cloudy
Visibilidad: 10 km
Cloud details: Mostly Cloudy 1981 m
2020/09/26 17:30 LEZG 261730Z 29008KT 250V320 9999 BKN065 19/09 Q1012

La estación de MeteoMurcia.com, publica sus datos en los siguientes proyectos:

Weather Underground PWS IMURCIAP2 Meteoclimatic www.awekas.at

W3Counter
Web Analytics